Time;durP1;ratioP1;P1;durP2;ratioP2;P2;SDS_P1;SDS_P2;PMS_P1;PMS_P2;Temp;Humidity;BMP_temperature;BMP_pressure;BME280_temperature;BME280_humidity;BME280_pressure;Samples;Min_cycle;Max_cycle;Signal;HPM_P1;HPM_P2
2022/02/23 00:00:24;;;;;;;7.05;2.97;;;;;;;6.70;75.23;100776.44;5052148;28;20477;-22
2022/02/23 00:02:49;;;;;;;8.38;2.17;;;;;;;6.68;75.39;100786.03;5060564;28;20032;-23
2022/02/23 00:05:14;;;;;;;4.70;1.67;;;;;;;6.65;75.21;100788.63;5062283;28;20526;-22
2022/02/23 00:07:40;;;;;;;5.90;2.10;;;;;;;6.63;75.08;100800.81;5062532;28;20052;-23
2022/02/23 00:10:06;;;;;;;5.22;1.52;;;;;;;6.63;75.30;100803.44;5066446;28;20040;-23
2022/02/23 00:12:31;;;;;;;4.43;1.58;;;;;;;6.58;74.90;100810.41;5052704;28;20126;-22
2022/02/23 00:14:58;;;;;;;4.18;2.40;;;;;;;6.53;74.85;100813.84;5051106;28;20487;-22
2022/02/23 00:17:25;;;;;;;5.70;1.75;;;;;;;6.52;75.13;100822.59;5052763;28;20024;-22
2022/02/23 00:19:51;;;;;;;4.00;1.85;;;;;;;6.48;74.99;100826.06;5051940;28;20029;-21
2022/02/23 00:22:17;;;;;;;6.75;1.98;;;;;;;6.49;74.55;100832.16;5051843;28;20073;-22
2022/02/23 00:24:42;;;;;;;7.80;1.98;;;;;;;6.44;74.65;100839.09;5055054;28;20021;-22
2022/02/23 00:27:08;;;;;;;5.53;2.05;;;;;;;6.43;74.49;100842.59;5050506;28;20074;-22
2022/02/23 00:29:35;;;;;;;4.65;2.33;;;;;;;6.40;74.14;100844.28;5052125;28;20041;-20
2022/02/23 00:32:00;;;;;;;7.35;2.10;;;;;;;6.38;73.74;100842.53;5050086;28;20473;-23
2022/02/23 00:34:26;;;;;;;6.65;2.35;;;;;;;6.34;73.39;100852.06;5052144;28;20570;-23
2022/02/23 00:36:51;;;;;;;5.32;2.30;;;;;;;6.32;73.48;100850.31;5053081;28;20036;-23
2022/02/23 00:39:17;;;;;;;8.68;2.25;;;;;;;6.29;73.49;100859.91;5052310;28;20033;-22
2022/02/23 00:41:42;;;;;;;7.75;3.20;;;;;;;6.27;73.47;100859.00;5052046;28;20361;-22
2022/02/23 00:44:07;;;;;;;6.55;2.00;;;;;;;6.25;74.01;100862.47;5052990;28;20078;-21
2022/02/23 00:46:33;;;;;;;5.35;1.92;;;;;;;6.22;74.04;100867.66;5053842;28;20043;-23
2022/02/23 00:48:58;;;;;;;3.78;1.73;;;;;;;6.20;74.10;100872.88;5052852;28;20031;-22
2022/02/23 00:51:23;;;;;;;3.63;2.25;;;;;;;6.19;73.99;100878.09;5049986;28;20060;-23
2022/02/23 00:53:48;;;;;;;6.13;2.70;;;;;;;6.16;74.38;100886.78;5051948;28;20024;-23
2022/02/23 00:56:14;;;;;;;5.40;1.88;;;;;;;6.13;74.44;100882.41;5050174;28;20035;-22
2022/02/23 00:58:39;;;;;;;10.43;2.03;;;;;;;6.11;73.88;100899.81;5050379;28;20032;-22
2022/02/23 01:01:04;;;;;;;4.18;2.03;;;;;;;6.09;74.38;100900.66;5051312;28;20499;-22
2022/02/23 01:03:30;;;;;;;3.35;1.92;;;;;;;6.06;74.11;100905.88;5051422;28;20031;-22
2022/02/23 01:05:56;;;;;;;3.90;1.75;;;;;;;6.03;74.44;100901.44;5052009;28;20036;-23
2022/02/23 01:08:21;;;;;;;4.57;1.70;;;;;;;6.01;74.05;100911.88;5052571;28;20025;-22
2022/02/23 01:10:46;;;;;;;4.10;1.60;;;;;;;5.98;73.28;100913.59;5054441;28;20559;-25
2022/02/23 01:13:12;;;;;;;10.05;2.08;;;;;;;5.96;73.76;100926.66;5051602;28;20017;-23
2022/02/23 01:15:37;;;;;;;4.68;1.95;;;;;;;5.92;73.69;100924.84;5051189;28;20039;-22
2022/02/23 01:18:02;;;;;;;3.75;1.60;;;;;;;5.91;74.33;100917.88;5051210;28;20036;-24
2022/02/23 01:20:28;;;;;;;4.93;1.60;;;;;;;5.87;73.79;100922.16;5051386;28;20106;-22
2022/02/23 01:22:56;;;;;;;3.55;1.90;;;;;;;5.84;74.24;100927.34;5051065;28;20082;-23
2022/02/23 01:25:24;;;;;;;5.97;2.28;;;;;;;5.83;74.11;100945.69;5051871;28;20025;-23
2022/02/23 01:27:49;;;;;;;3.55;1.50;;;;;;;5.78;74.16;100933.38;5050951;28;20089;-22
2022/02/23 01:30:15;;;;;;;5.70;1.98;;;;;;;5.75;74.31;100943.81;5051263;28;20025;-22
2022/02/23 01:32:40;;;;;;;2.65;1.65;;;;;;;5.72;74.05;100946.38;5050870;28;20111;-24
2022/02/23 01:35:06;;;;;;;4.82;1.70;;;;;;;5.69;73.88;100946.34;5047285;28;20029;-23
2022/02/23 01:37:31;;;;;;;4.50;1.42;;;;;;;5.66;73.87;100951.53;5048331;28;20032;-23
2022/02/23 01:39:56;;;;;;;3.10;1.75;;;;;;;5.64;74.62;100950.63;5050418;28;20056;-22
2022/02/23 01:42:22;;;;;;;4.20;1.83;;;;;;;5.60;74.04;100956.69;5047456;28;20040;-23
2022/02/23 01:44:47;;;;;;;3.90;1.20;;;;;;;5.57;73.97;100954.00;5046173;28;20090;-22
2022/02/23 01:47:12;;;;;;;5.95;2.20;;;;;;;5.55;74.23;100966.16;5048954;28;20025;-22
2022/02/23 01:49:38;;;;;;;4.43;1.95;;;;;;;5.52;74.07;100978.34;5048566;28;20036;-22
2022/02/23 01:52:04;;;;;;;3.03;1.40;;;;;;;5.48;73.94;100967.81;5051929;28;20086;-23
2022/02/23 01:54:29;;;;;;;4.38;1.33;;;;;;;5.45;73.91;100971.25;5054384;28;20036;-23
2022/02/23 01:56:54;;;;;;;4.05;2.03;;;;;;;5.40;73.51;100972.91;5049220;28;20017;-22
2022/02/23 01:59:20;;;;;;;5.32;1.80;;;;;;;5.37;73.55;100989.44;5050608;28;20033;-21
2022/02/23 02:01:45;;;;;;;4.90;1.60;;;;;;;5.32;73.13;100985.84;5047769;28;20367;-22
2022/02/23 02:04:10;;;;;;;3.10;1.55;;;;;;;5.29;73.48;100991.03;5049733;28;20483;-23
2022/02/23 02:06:36;;;;;;;3.95;1.80;;;;;;;5.26;73.49;100994.47;5048006;28;20032;-22
2022/02/23 02:09:02;;;;;;;4.78;1.77;;;;;;;5.23;73.39;100990.91;5049406;28;20035;-22
2022/02/23 02:11:27;;;;;;;3.88;1.80;;;;;;;5.20;73.25;100996.97;5031257;28;20036;-21
2022/02/23 02:13:52;;;;;;;8.23;2.22;;;;;;;5.16;73.77;101004.75;5049771;28;20052;-22
2022/02/23 02:16:18;;;;;;;5.05;1.90;;;;;;;5.13;73.25;101002.94;5046760;28;20055;-24
2022/02/23 02:18:43;;;;;;;3.85;1.63;;;;;;;5.10;73.75;101011.59;5048398;28;20027;-22
2022/02/23 02:21:08;;;;;;;7.75;1.73;;;;;;;5.08;73.30;101009.81;5050072;28;20029;-23
2022/02/23 02:23:34;;;;;;;5.55;2.30;;;;;;;5.05;73.59;101015.00;5047483;28;20029;-22
2022/02/23 02:25:59;;;;;;;6.75;1.50;;;;;;;5.03;73.87;101016.72;5050264;28;20475;-21
2022/02/23 02:28:24;;;;;;;4.75;1.70;;;;;;;5.01;73.86;101021.91;5050605;28;20478;-24
2022/02/23 02:30:50;;;;;;;3.67;1.90;;;;;;;4.98;73.60;101021.84;5052923;28;20024;-21
2022/02/23 02:33:15;;;;;;;2.90;1.60;;;;;;;4.96;73.76;101019.19;5046948;28;20177;-22
2022/02/23 02:35:41;;;;;;;5.13;1.50;;;;;;;4.93;73.96;101024.34;5050321;28;20035;-21
2022/02/23 02:38:06;;;;;;;5.28;1.90;;;;;;;4.89;74.02;101033.00;5050295;28;20021;-24
2022/02/23 02:40:34;;;;;;;3.95;1.77;;;;;;;4.89;73.81;101043.44;5047139;28;20464;-23
2022/02/23 02:42:59;;;;;;;4.22;1.90;;;;;;;4.88;73.79;101045.16;5048194;28;20024;-21
2022/02/23 02:45:25;;;;;;;7.32;1.80;;;;;;;4.85;73.89;101046.84;5050258;28;20033;-23
2022/02/23 02:47:51;;;;;;;5.32;1.60;;;;;;;4.83;74.21;101044.19;5046559;28;20037;-24
2022/02/23 02:50:16;;;;;;;5.82;1.80;;;;;;;4.81;73.69;101037.19;5046895;28;20056;-22
2022/02/23 02:52:42;;;;;;;6.20;1.60;;;;;;;4.79;74.20;101046.72;5058772;28;20074;-22
2022/02/23 02:55:08;;;;;;;3.45;1.42;;;;;;;4.79;73.89;101046.72;5058050;28;20028;-24
2022/02/23 02:57:33;;;;;;;5.47;1.75;;;;;;;4.78;74.28;101047.56;5048404;28;20043;-24
2022/02/23 02:59:58;;;;;;;3.95;1.95;;;;;;;4.76;73.96;101047.53;5051985;28;20025;-24
2022/02/23 03:02:24;;;;;;;5.22;2.08;;;;;;;4.72;74.30;101054.44;5049509;28;20440;-22
2022/02/23 03:04:49;;;;;;;4.43;1.63;;;;;;;4.71;74.38;101055.25;5045576;28;20056;-22
2022/02/23 03:07:16;;;;;;;5.68;1.95;;;;;;;4.69;73.93;101056.97;5049427;28;20029;-23
2022/02/23 03:09:41;;;;;;;4.93;1.92;;;;;;;4.68;74.29;101059.56;5050793;28;20523;-22
2022/02/23 03:12:07;;;;;;;4.32;1.58;;;;;;;4.67;74.70;101074.34;5049317;28;20115;-22
2022/02/23 03:14:32;;;;;;;7.90;2.50;;;;;;;4.64;74.11;101079.53;5049894;28;20029;-22
2022/02/23 03:16:57;;;;;;;7.63;1.98;;;;;;;4.62;75.14;101084.72;5049686;28;20048;-22
2022/02/23 03:19:23;;;;;;;9.60;3.03;;;;;;;4.61;74.57;101084.69;5053955;28;20111;-23
2022/02/23 03:21:48;;;;;;;7.93;2.75;;;;;;;4.60;75.08;101090.72;5047691;28;20032;-22
2022/02/23 03:24:13;;;;;;;6.75;2.30;;;;;;;4.58;74.91;101106.41;5050178;28;20102;-23
2022/02/23 03:26:39;;;;;;;6.60;2.25;;;;;;;4.56;75.16;101099.34;5048461;28;20028;-22
2022/02/23 03:29:04;;;;;;;4.10;2.08;;;;;;;4.56;75.08;101101.97;5044549;28;20364;-22
2022/02/23 03:31:29;;;;;;;9.43;2.70;;;;;;;4.56;75.45;101104.56;5049979;28;20048;-21
2022/02/23 03:33:55;;;;;;;6.50;2.53;;;;;;;4.56;75.40;101117.63;5047461;28;20104;-23
2022/02/23 03:36:20;;;;;;;5.53;2.20;;;;;;;4.55;75.45;101123.72;5049360;28;20063;-25
2022/02/23 03:38:46;;;;;;;5.43;1.90;;;;;;;4.53;75.44;101133.28;5048662;28;20023;-22
2022/02/23 03:41:12;;;;;;;6.95;2.95;;;;;;;4.54;75.60;101140.25;5048921;28;20071;-24
2022/02/23 03:43:37;;;;;;;10.48;3.00;;;;;;;4.53;75.72;101144.59;5046463;28;20068;-23
2022/02/23 03:46:03;;;;;;;8.35;2.85;;;;;;;4.54;75.95;101145.47;5045857;28;20024;-22
2022/02/23 03:48:28;;;;;;;9.10;2.78;;;;;;;4.52;75.91;101147.16;5047762;28;20112;-21
2022/02/23 03:50:54;;;;;;;8.50;2.47;;;;;;;4.53;75.70;101149.81;5047593;28;20451;-23
2022/02/23 03:53:20;;;;;;;9.18;2.63;;;;;;;4.52;76.14;101152.38;5030358;28;20036;-22
2022/02/23 03:55:45;;;;;;;12.02;3.45;;;;;;;4.51;76.26;101153.22;5046738;28;20029;-23
2022/02/23 03:58:11;;;;;;;9.07;2.33;;;;;;;4.52;76.30;101160.22;5042802;28;20127;-22
2022/02/23 04:00:36;;;;;;;10.63;2.30;;;;;;;4.52;76.25;101173.28;5051618;28;20024;-22
2022/02/23 04:03:02;;;;;;;11.20;2.97;;;;;;;4.52;76.33;101178.50;5050702;28;20478;-24
2022/02/23 04:05:27;;;;;;;11.25;2.53;;;;;;;4.52;76.14;101181.13;5051776;28;20033;-22
2022/02/23 04:07:52;;;;;;;9.73;2.25;;;;;;;4.52;76.10;101178.50;5050967;28;20383;-22
2022/02/23 04:10:19;;;;;;;10.38;2.75;;;;;;;4.52;76.03;101183.72;5047210;28;20114;-23
2022/02/23 04:12:46;;;;;;;8.82;2.67;;;;;;;4.52;76.21;101186.34;5045837;28;20025;-22
2022/02/23 04:15:12;;;;;;;9.88;2.70;;;;;;;4.52;76.40;101188.94;5049430;28;20025;-23
2022/02/23 04:17:37;;;;;;;10.80;2.80;;;;;;;4.52;76.03;101196.78;5052547;28;20491;-23
2022/02/23 04:20:04;;;;;;;9.50;2.92;;;;;;;4.51;76.07;101208.09;5029418;28;20032;-21
2022/02/23 04:22:29;;;;;;;10.38;3.28;;;;;;;4.52;76.25;101215.06;5051860;28;20487;-23
2022/02/23 04:24:54;;;;;;;6.68;2.25;;;;;;;4.51;75.87;101223.75;5054358;28;20020;-22
2022/02/23 04:27:20;;;;;;;8.48;2.80;;;;;;;4.49;75.76;101232.47;5049830;28;20462;-23
2022/02/23 04:29:46;;;;;;;5.45;2.22;;;;;;;4.49;76.30;101232.47;5049257;28;20479;-23
2022/02/23 04:32:11;;;;;;;11.52;3.05;;;;;;;4.49;76.14;101242.91;5049933;28;20429;-23
2022/02/23 04:34:37;;;;;;;5.90;2.80;;;;;;;4.48;76.15;101246.38;5050974;28;20138;-22
2022/02/23 04:37:02;;;;;;;9.82;3.35;;;;;;;4.48;76.26;101251.59;5046956;28;20491;-22
2022/02/23 04:39:28;;;;;;;13.43;3.58;;;;;;;4.48;76.51;101256.81;5050112;28;20390;-23
2022/02/23 04:41:53;;;;;;;9.38;2.47;;;;;;;4.48;76.37;101261.16;5054076;28;20127;-22
2022/02/23 04:44:19;;;;;;;8.90;2.45;;;;;;;4.47;76.35;101257.66;5061670;28;20118;-23
2022/02/23 04:46:44;;;;;;;7.78;2.75;;;;;;;4.48;76.39;101267.28;5063798;28;20523;-23
2022/02/23 04:49:09;;;;;;;7.95;2.92;;;;;;;4.46;76.23;101268.94;5061932;28;20051;-23
2022/02/23 04:51:36;;;;;;;10.10;3.35;;;;;;;4.49;76.21;101269.03;5054754;28;20047;-23
2022/02/23 04:54:02;;;;;;;8.50;2.92;;;;;;;4.50;76.16;101280.34;5048843;28;20461;-22
2022/02/23 04:56:27;;;;;;;10.23;2.38;;;;;;;4.51;76.06;101283.84;5049792;28;20082;-22
2022/02/23 04:58:53;;;;;;;7.60;2.75;;;;;;;4.51;75.99;101283.84;5051547;28;20360;-21
2022/02/23 05:01:19;;;;;;;5.78;2.80;;;;;;;4.51;76.18;101289.97;5051776;28;20025;-24
2022/02/23 05:03:44;;;;;;;7.90;2.30;;;;;;;4.49;76.08;101305.59;5051635;28;20302;-22
2022/02/23 05:06:10;;;;;;;11.38;3.72;;;;;;;4.52;75.94;101298.69;5050451;28;20032;-22
2022/02/23 05:08:35;;;;;;;13.48;3.15;;;;;;;4.53;76.19;101292.63;5049693;28;20036;-23
2022/02/23 05:11:01;;;;;;;8.27;2.65;;;;;;;4.52;76.35;101302.19;5050525;28;20495;-22
2022/02/23 05:13:27;;;;;;;9.55;3.45;;;;;;;4.53;76.07;101311.78;5049579;28;20042;-22
2022/02/23 05:15:57;;;;;;;7.65;3.30;;;;;;;4.54;76.18;101318.78;5051136;28;20100;-24
2022/02/23 05:18:23;;;;;;;9.45;2.65;;;;;;;4.54;76.38;101316.19;5050355;28;20060;-21
2022/02/23 05:20:49;;;;;;;9.77;2.50;;;;;;;4.54;76.29;101317.91;5031745;28;20515;-22
2022/02/23 05:23:15;;;;;;;11.82;3.25;;;;;;;4.56;76.21;101324.03;5055050;28;20124;-23
2022/02/23 05:25:41;;;;;;;7.85;3.33;;;;;;;4.54;76.27;101328.34;5049406;28;20552;-22
2022/02/23 05:28:06;;;;;;;9.80;2.85;;;;;;;4.54;76.26;101333.56;5054296;28;20025;-23
2022/02/23 05:30:31;;;;;;;7.65;2.45;;;;;;;4.54;76.52;101342.31;5051428;28;20459;-23
2022/02/23 05:32:57;;;;;;;7.78;2.72;;;;;;;4.54;76.23;101331.84;5048774;28;20035;-22
2022/02/23 05:35:22;;;;;;;9.10;2.70;;;;;;;4.54;76.14;101344.03;5051669;28;20025;-22
2022/02/23 05:37:48;;;;;;;13.07;3.60;;;;;;;4.55;76.47;101345.78;5049660;28;20025;-22
2022/02/23 05:40:14;;;;;;;6.35;2.70;;;;;;;4.53;76.56;101348.34;5051443;28;20028;-24
2022/02/23 05:42:39;;;;;;;7.32;2.70;;;;;;;4.54;76.23;101347.53;5051022;28;20032;-21
2022/02/23 05:45:05;;;;;;;7.18;2.33;;;;;;;4.55;76.51;101358.84;5051646;28;20087;-23
2022/02/23 05:47:31;;;;;;;6.15;2.60;;;;;;;4.53;75.86;101364.03;5051934;28;20021;-22
2022/02/23 05:49:56;;;;;;;4.53;2.20;;;;;;;4.55;76.18;101366.69;5051499;28;20031;-22
2022/02/23 05:52:22;;;;;;;11.38;2.67;;;;;;;4.54;76.15;101376.28;5050275;28;20048;-22
2022/02/23 05:54:48;;;;;;;8.63;2.50;;;;;;;4.54;76.35;101370.16;5044689;28;20654;-22
2022/02/23 05:57:14;;;;;;;10.10;2.67;;;;;;;4.55;76.15;101382.38;5051265;28;20033;-21
2022/02/23 05:59:39;;;;;;;6.68;2.92;;;;;;;4.54;75.70;101391.94;5050839;28;20021;-22
2022/02/23 06:02:05;;;;;;;6.95;3.22;;;;;;;4.55;76.18;101398.03;5050298;28;20025;-23
2022/02/23 06:04:30;;;;;;;7.60;3.25;;;;;;;4.54;76.24;101406.72;5051130;28;20034;-23
2022/02/23 06:06:56;;;;;;;4.22;2.53;;;;;;;4.53;75.75;101411.06;5051149;28;20031;-22
2022/02/23 06:09:21;;;;;;;9.65;2.45;;;;;;;4.52;75.57;101418.84;5050715;28;20043;-23
2022/02/23 06:11:47;;;;;;;9.68;2.78;;;;;;;4.52;75.85;101424.06;5050991;28;20028;-23
2022/02/23 06:14:13;;;;;;;9.60;2.67;;;;;;;4.52;75.74;101432.81;5050419;28;20041;-24
2022/02/23 06:16:38;;;;;;;6.70;2.88;;;;;;;4.52;76.03;101439.75;5047398;28;20095;-21
2022/02/23 06:19:04;;;;;;;6.07;2.63;;;;;;;4.49;75.81;101440.56;5048819;28;20444;-23
2022/02/23 06:21:30;;;;;;;8.50;2.78;;;;;;;4.49;75.81;101451.91;5049314;28;20025;-22
2022/02/23 06:23:56;;;;;;;10.13;4.03;;;;;;;4.49;75.62;101451.91;5049085;28;20083;-22
2022/02/23 06:26:22;;;;;;;10.25;3.08;;;;;;;4.48;75.56;101457.97;5050926;28;20044;-22
2022/02/23 06:28:48;;;;;;;8.00;2.55;;;;;;;4.47;75.85;101464.03;5039171;28;20025;-23
2022/02/23 06:31:14;;;;;;;8.55;2.55;;;;;;;4.46;75.69;101469.19;5049308;28;20525;-22
2022/02/23 06:33:42;;;;;;;8.75;2.33;;;;;;;4.44;75.65;101469.16;5032763;28;20082;-21
2022/02/23 06:36:08;;;;;;;6.57;2.33;;;;;;;4.43;75.96;101477.84;5052198;28;20021;-22
2022/02/23 06:38:36;;;;;;;4.07;2.17;;;;;;;4.42;75.81;101478.69;5052170;28;20479;-22
2022/02/23 06:41:03;;;;;;;7.90;2.65;;;;;;;4.42;75.88;101486.53;5052055;28;20373;-22
2022/02/23 06:43:29;;;;;;;8.55;3.30;;;;;;;4.41;75.96;101492.59;5049374;28;20017;-23
2022/02/23 06:45:55;;;;;;;6.90;2.30;;;;;;;4.41;75.37;101490.00;5050978;28;20082;-23
2022/02/23 06:48:22;;;;;;;6.55;2.28;;;;;;;4.39;75.45;101499.50;5056030;28;20035;-24
2022/02/23 06:50:48;;;;;;;9.52;2.75;;;;;;;4.39;76.06;101503.81;5049997;28;20475;-23
2022/02/23 06:53:15;;;;;;;12.02;2.22;;;;;;;4.38;75.44;101513.41;5056596;28;20021;-21
2022/02/23 06:55:41;;;;;;;10.30;3.65;;;;;;;4.38;75.64;101509.88;5049685;28;20390;-21
2022/02/23 06:58:07;;;;;;;8.82;2.42;;;;;;;4.36;75.65;101522.91;5050203;28;20024;-23
2022/02/23 07:00:32;;;;;;;8.95;2.72;;;;;;;4.36;75.20;101530.72;5055787;28;20086;-21
2022/02/23 07:02:58;;;;;;;7.68;2.33;;;;;;;4.35;75.60;101531.59;5055807;28;20027;-22
2022/02/23 07:05:23;;;;;;;9.65;2.65;;;;;;;4.34;75.13;101535.91;5049257;28;20031;-22
2022/02/23 07:07:49;;;;;;;4.70;2.15;;;;;;;4.32;75.50;101531.47;5049592;28;20486;-23
2022/02/23 07:10:26;;;;;;;12.23;2.80;;;;;;;4.32;75.90;101541.94;5054426;28;20025;-22
2022/02/23 07:12:52;;;;;;;5.30;2.33;;;;;;;4.29;75.40;101537.50;5051883;28;20155;-23
2022/02/23 07:15:18;;;;;;;7.68;3.22;;;;;;;4.30;75.65;101548.84;5050162;28;20017;-24
2022/02/23 07:17:43;;;;;;;3.90;2.17;;;;;;;4.28;75.68;101551.41;5049958;28;20047;-21
2022/02/23 07:20:09;;;;;;;5.50;2.65;;;;;;;4.28;75.86;101551.41;5046640;28;20531;-22
2022/02/23 07:22:36;;;;;;;4.90;2.25;;;;;;;4.27;75.69;101560.06;5051531;28;20036;-22
2022/02/23 07:25:02;;;;;;;4.30;1.80;;;;;;;4.26;76.04;101560.03;5052826;28;20075;-22
2022/02/23 07:27:27;;;;;;;7.82;2.53;;;;;;;4.26;75.74;101565.25;5035335;28;20020;-22
2022/02/23 07:29:53;;;;;;;6.03;2.20;;;;;;;4.26;75.42;101567.88;5049315;28;20041;-23
2022/02/23 07:32:22;;;;;;;4.78;2.22;;;;;;;4.25;75.87;101580.03;5050515;28;20084;-23
2022/02/23 07:34:49;;;;;;;8.05;2.75;;;;;;;4.24;76.24;101581.75;5049801;28;20044;-21
2022/02/23 07:37:15;;;;;;;7.80;2.20;;;;;;;4.27;76.37;101590.53;5055489;28;20045;-22
2022/02/23 07:39:40;;;;;;;5.55;2.38;;;;;;;4.24;75.91;101589.59;5052965;28;20057;-24
2022/02/23 07:42:07;;;;;;;8.63;2.25;;;;;;;4.26;76.06;101594.00;5058318;28;20140;-22
2022/02/23 07:44:33;;;;;;;11.27;2.80;;;;;;;4.29;76.56;101608.03;5057655;28;20020;-22
2022/02/23 07:46:58;;;;;;;5.60;2.78;;;;;;;4.30;76.59;101601.09;5057122;28;20031;-23
2022/02/23 07:49:23;;;;;;;5.70;2.45;;;;;;;4.32;75.98;101609.84;5054555;28;20021;-20
2022/02/23 07:51:49;;;;;;;6.18;2.00;;;;;;;4.33;76.88;101611.59;5051732;28;20441;-22
2022/02/23 07:54:14;;;;;;;8.45;2.88;;;;;;;4.35;76.50;101609.94;5053208;28;20029;-20
2022/02/23 07:56:40;;;;;;;7.53;2.33;;;;;;;4.36;76.40;101606.47;5052679;28;20036;-22
2022/02/23 07:59:05;;;;;;;6.90;2.80;;;;;;;4.39;76.54;101616.13;5056929;28;20028;-21
2022/02/23 08:01:35;;;;;;;8.02;2.90;;;;;;;4.42;76.93;101617.13;5051620;28;20017;-22
2022/02/23 08:04:02;;;;;;;7.05;2.75;;;;;;;4.45;76.44;101617.25;5058096;28;20471;-22
2022/02/23 08:06:28;;;;;;;9.65;2.75;;;;;;;4.48;76.69;101621.66;5053355;28;20107;-22
2022/02/23 08:08:55;;;;;;;10.40;2.97;;;;;;;4.50;76.77;101630.44;5053296;28;20514;-23
2022/02/23 08:11:21;;;;;;;7.10;2.35;;;;;;;4.54;76.52;101627.09;5062193;28;20086;-23
2022/02/23 08:13:46;;;;;;;8.10;2.88;;;;;;;4.57;77.04;101624.56;5054027;28;20017;-22
2022/02/23 08:21:40;;;;;;;11.00;2.83;;;;;;;4.69;77.34;101637.13;5052306;28;21108;-24
2022/02/23 08:24:05;;;;;;;6.05;2.40;;;;;;;4.76;77.07;101646.03;5052206;28;20028;-22
2022/02/23 08:26:31;;;;;;;15.32;3.05;;;;;;;4.79;77.50;101642.63;5058288;28;20024;-22
2022/02/23 08:28:56;;;;;;;10.02;4.20;;;;;;;4.85;77.29;101641.09;5055331;28;20474;-21
2022/02/23 08:31:21;;;;;;;13.15;2.50;;;;;;;4.90;77.41;101641.22;5053154;28;20033;-22
2022/02/23 08:33:47;;;;;;;8.18;2.80;;;;;;;4.96;77.61;101641.41;5056575;28;20032;-21
2022/02/23 08:36:12;;;;;;;10.95;2.83;;;;;;;5.00;77.36;101638.03;5051661;28;20020;-21
2022/02/23 08:38:39;;;;;;;6.50;3.42;;;;;;;5.06;76.85;101650.41;5050883;28;20594;-21
2022/02/23 08:41:04;;;;;;;5.55;2.50;;;;;;;5.12;77.28;101652.31;5050391;28;20025;-23
2022/02/23 08:43:29;;;;;;;8.05;2.85;;;;;;;5.18;76.96;101652.50;5054189;28;20078;-23
2022/02/23 08:45:55;;;;;;;11.02;3.08;;;;;;;5.24;77.28;101657.03;5057447;28;20104;-21
2022/02/23 08:48:20;;;;;;;9.57;2.75;;;;;;;5.30;76.62;101664.16;5052808;28;20021;-24
2022/02/23 08:50:46;;;;;;;9.52;3.33;;;;;;;5.36;76.50;101659.09;5051269;28;20025;-22
2022/02/23 08:53:11;;;;;;;8.43;2.53;;;;;;;5.42;76.57;101661.91;5051726;28;20090;-20
2022/02/23 08:55:36;;;;;;;5.85;2.40;;;;;;;5.49;76.60;101663.84;5052973;28;20033;-22
2022/02/23 08:58:02;;;;;;;14.95;3.85;;;;;;;5.56;76.58;101659.66;5052366;28;20074;-21
2022/02/23 09:00:28;;;;;;;14.65;3.55;;;;;;;5.62;76.85;101664.19;5056896;28;20104;-22
2022/02/23 09:02:53;;;;;;;9.52;3.08;;;;;;;5.69;76.44;101665.22;5056628;28;20374;-23
2022/02/23 09:05:19;;;;;;;8.60;3.72;;;;;;;5.75;76.58;101661.06;5051940;28;20523;-22
2022/02/23 09:07:44;;;;;;;9.75;3.20;;;;;;;5.83;76.49;101668.25;5050584;28;20025;-21
2022/02/23 09:10:09;;;;;;;9.15;3.28;;;;;;;5.91;75.91;101666.69;5053489;28;20017;-22
2022/02/23 09:12:35;;;;;;;6.20;2.88;;;;;;;5.97;75.81;101663.34;5052910;28;20028;-22
2022/02/23 09:15:00;;;;;;;8.88;2.90;;;;;;;6.05;75.84;101664.47;5055523;28;20048;-22
2022/02/23 09:17:25;;;;;;;8.85;3.22;;;;;;;6.13;75.97;101680.38;5055130;28;20108;-22
2022/02/23 09:19:51;;;;;;;13.25;3.10;;;;;;;6.20;75.44;101669.19;5055594;28;20052;-22
2022/02/23 09:22:16;;;;;;;11.60;3.40;;;;;;;6.25;75.85;101669.31;5053618;28;20017;-22
2022/02/23 09:24:43;;;;;;;9.35;3.47;;;;;;;6.33;75.52;101665.16;5052811;28;20023;-21
2022/02/23 09:27:08;;;;;;;9.45;3.92;;;;;;;6.40;75.11;101668.78;5052456;28;20021;-22
2022/02/23 09:29:36;;;;;;;9.88;3.72;;;;;;;6.47;74.94;101668.09;5052550;28;20024;-23
2022/02/23 09:32:03;;;;;;;10.95;2.85;;;;;;;6.56;75.34;101666.56;5049636;28;20044;-22
2022/02/23 09:34:28;;;;;;;6.38;2.88;;;;;;;6.60;75.17;101665.78;5050606;28;20473;-23
2022/02/23 09:36:54;;;;;;;12.75;3.92;;;;;;;6.67;74.39;101671.19;5055036;28;20479;-23
2022/02/23 09:39:19;;;;;;;8.73;3.42;;;;;;;6.75;74.27;101667.88;5052792;28;20091;-21
2022/02/23 09:41:46;;;;;;;9.05;3.15;;;;;;;6.80;73.75;101667.13;5050825;28;20027;-21
2022/02/23 09:44:15;;;;;;;8.60;3.33;;;;;;;6.86;73.75;101658.50;5051563;28;20249;-22
2022/02/23 09:46:41;;;;;;;9.10;3.05;;;;;;;6.93;73.53;101667.38;5049684;28;20051;-20
2022/02/23 09:49:07;;;;;;;10.18;3.05;;;;;;;6.98;73.42;101671.03;5054801;28;20021;-20
2022/02/23 09:51:32;;;;;;;10.98;2.72;;;;;;;7.05;73.80;101672.03;5056871;28;20051;-23
2022/02/23 09:53:57;;;;;;;8.05;3.08;;;;;;;7.12;73.87;101667.78;5055768;28;21187;-22
2022/02/23 09:56:23;;;;;;;11.20;3.20;;;;;;;7.20;73.66;101679.31;5053539;28;20020;-22
2022/02/23 09:58:50;;;;;;;10.25;4.07;;;;;;;7.25;73.74;101682.97;5053300;28;20021;-21
2022/02/23 10:01:15;;;;;;;13.07;3.72;;;;;;;7.30;73.32;101678.69;5050909;28;20032;-22
2022/02/23 10:03:46;;;;;;;7.70;3.05;;;;;;;7.38;73.05;101683.19;5053811;28;20025;-22
2022/02/23 10:06:26;;;;;;;6.80;2.63;;;;;;;7.43;72.42;101684.16;5050234;28;20083;-22
2022/02/23 10:09:04;;;;;;;11.57;2.93;;;;;;;7.49;72.50;101673.81;5052604;28;20032;-22
2022/02/23 10:11:30;;;;;;;10.50;3.13;;;;;;;7.54;71.97;101685.28;5053628;28;20035;-21
2022/02/23 10:14:01;;;;;;;12.05;2.78;;;;;;;7.63;71.87;101699.44;5066138;28;20112;-22
2022/02/23 10:16:31;;;;;;;7.30;2.90;;;;;;;7.68;71.51;101689.91;5065481;28;20021;-21
2022/02/23 10:19:28;;;;;;;9.90;3.67;;;;;;;7.75;72.26;101693.53;5062120;28;20017;-21
2022/02/23 10:21:59;;;;;;;11.65;3.05;;;;;;;7.79;71.47;101695.38;5058874;28;20470;-21
2022/02/23 10:24:37;;;;;;;10.43;3.60;;;;;;;7.88;71.67;101702.53;5054516;28;20564;-22
2022/02/23 10:27:03;;;;;;;12.57;3.35;;;;;;;7.93;71.67;101704.41;5051683;28;20453;-23
2022/02/23 10:29:34;;;;;;;8.95;3.05;;;;;;;7.99;71.84;101697.47;5051004;28;20052;-22
2022/02/23 10:32:00;;;;;;;7.57;3.20;;;;;;;8.05;71.85;101700.22;5054215;28;20028;-22
2022/02/23 10:34:26;;;;;;;9.38;2.67;;;;;;;8.09;71.43;101709.94;5052235;28;20025;-22
2022/02/23 10:37:08;;;;;;;6.22;3.50;;;;;;;8.15;71.12;101709.16;5052375;28;20082;-21
2022/02/23 10:39:40;;;;;;;6.57;2.70;;;;;;;8.22;71.38;101705.78;5047615;28;20037;-20
2022/02/23 10:42:13;;;;;;;8.27;2.90;;;;;;;8.27;71.15;101706.72;5051832;28;20013;-20
2022/02/23 10:44:41;;;;;;;7.72;3.10;;;;;;;8.34;70.88;101698.09;5051487;28;20101;-22
2022/02/23 10:47:07;;;;;;;6.90;2.75;;;;;;;8.39;70.79;101705.16;5052149;28;20013;-22
2022/02/23 10:49:32;;;;;;;12.10;3.20;;;;;;;8.45;69.98;101707.91;5053400;28;20475;-23
2022/02/23 10:52:06;;;;;;;4.93;2.47;;;;;;;8.49;70.50;101707.09;5056962;28;20028;-21
2022/02/23 10:54:33;;;;;;;12.40;3.17;;;;;;;8.56;70.54;101713.38;5050441;28;20073;-23
2022/02/23 10:56:58;;;;;;;10.40;3.30;;;;;;;8.60;70.18;101708.19;5052347;28;20029;-22
2022/02/23 10:59:24;;;;;;;6.30;2.75;;;;;;;8.66;69.53;101714.38;5049640;28;20075;-20
2022/02/23 11:01:51;;;;;;;6.63;2.60;;;;;;;8.70;69.35;101718.84;5049482;28;20020;-22
2022/02/23 11:04:18;;;;;;;8.85;2.90;;;;;;;8.75;69.40;101706.66;5048303;28;20021;-21
2022/02/23 11:06:44;;;;;;;6.88;2.80;;;;;;;8.79;70.02;101715.47;5052787;28;20024;-22
2022/02/23 11:09:10;;;;;;;10.02;3.10;;;;;;;8.82;68.96;101716.41;5055080;28;20379;-21
2022/02/23 11:11:37;;;;;;;6.63;2.45;;;;;;;8.89;68.97;101724.38;5053104;28;20025;-23
2022/02/23 11:14:06;;;;;;;7.53;3.17;;;;;;;8.96;68.83;101734.13;5056604;28;20112;-22
2022/02/23 11:16:32;;;;;;;12.35;3.28;;;;;;;9.00;68.82;101725.41;5055541;28;20028;-22
2022/02/23 11:19:00;;;;;;;7.45;2.35;;;;;;;9.04;68.81;101721.97;5054369;28;20032;-22
2022/02/23 11:21:34;;;;;;;7.40;3.40;;;;;;;9.10;68.99;101722.06;5053055;28;20044;-23
2022/02/23 11:24:07;;;;;;;6.57;2.55;;;;;;;9.14;69.02;101717.72;5054347;28;20491;-22
2022/02/23 11:26:37;;;;;;;9.60;3.85;;;;;;;9.19;69.30;101728.31;5055411;28;20483;-22
2022/02/23 11:29:12;;;;;;;7.40;2.97;;;;;;;9.22;68.53;101725.72;5053739;28;20040;-21
2022/02/23 11:31:38;;;;;;;6.22;3.42;;;;;;;9.28;68.34;101724.94;5052967;28;20028;-22